createdAt,value
2023-01-22T00:01:18.994Z,-0.22
2023-01-22T00:03:47.278Z,-0.24
2023-01-22T00:06:15.972Z,-0.28
2023-01-22T00:08:43.689Z,-0.31
2023-01-22T00:11:11.480Z,-0.31
2023-01-22T00:13:38.916Z,-0.32
2023-01-22T00:16:07.511Z,-0.35
2023-01-22T00:18:36.664Z,-0.36
2023-01-22T00:21:04.062Z,-0.41
2023-01-22T00:23:33.155Z,-0.42
2023-01-22T00:26:12.004Z,-0.44
2023-01-22T00:28:41.767Z,-0.45
2023-01-22T00:31:10.968Z,-0.47
2023-01-22T00:33:39.914Z,-0.50
2023-01-22T00:36:13.679Z,-0.53
2023-01-22T00:38:41.661Z,-0.57
2023-01-22T00:41:10.721Z,-0.61
2023-01-22T00:43:38.772Z,-0.63
2023-01-22T00:46:11.567Z,-0.68
2023-01-22T00:48:39.026Z,-0.73
2023-01-22T00:51:08.825Z,-0.78
2023-01-22T00:53:38.590Z,-0.84
2023-01-22T00:56:06.563Z,-0.87
2023-01-22T00:58:34.447Z,-0.92
2023-01-22T01:01:02.410Z,-0.94
2023-01-22T01:03:33.820Z,-0.98
2023-01-22T01:06:07.035Z,-0.98
2023-01-22T01:08:37.368Z,-0.99
2023-01-22T01:11:08.635Z,-0.99
2023-01-22T01:13:38.459Z,-0.95
2023-01-22T01:16:09.763Z,-0.91
2023-01-22T01:18:37.258Z,-0.85
2023-01-22T01:21:05.979Z,-0.79
2023-01-22T01:23:34.162Z,-0.72
2023-01-22T01:26:05.543Z,-0.67
2023-01-22T01:28:38.301Z,-0.61
2023-01-22T01:31:10.406Z,-0.55
2023-01-22T01:33:38.020Z,-0.51
2023-01-22T01:36:11.903Z,-0.44
2023-01-22T01:38:41.740Z,-0.37
2023-01-22T01:41:12.170Z,-0.32
2023-01-22T01:43:40.651Z,-0.25
2023-01-22T01:46:25.161Z,-0.18
2023-01-22T01:48:55.363Z,-0.13
2023-01-22T01:51:31.531Z,-0.06
2023-01-22T01:54:01.082Z,-0.01
2023-01-22T01:56:39.859Z,0.05
2023-01-22T01:59:11.756Z,0.09
2023-01-22T02:01:39.954Z,0.14
2023-01-22T02:04:09.932Z,0.18
2023-01-22T02:06:37.295Z,0.21
2023-01-22T02:09:05.052Z,0.23
2023-01-22T02:11:35.147Z,0.24
2023-01-22T02:14:06.998Z,0.23
2023-01-22T02:16:34.429Z,0.27
2023-01-22T02:19:02.446Z,0.28
2023-01-22T02:21:44.162Z,0.29
2023-01-22T02:24:15.007Z,0.30
2023-01-22T02:26:44.772Z,0.30
2023-01-22T02:29:16.282Z,0.33
2023-01-22T02:31:43.745Z,0.34
2023-01-22T02:34:11.444Z,0.35
2023-01-22T02:36:41.865Z,0.36
2023-01-22T02:39:09.383Z,0.38
2023-01-22T02:41:38.630Z,0.39
2023-01-22T02:44:07.628Z,0.39
2023-01-22T02:46:35.039Z,0.40
2023-01-22T02:49:02.494Z,0.39
2023-01-22T02:51:32.749Z,0.39
2023-01-22T02:54:00.042Z,0.38
2023-01-22T02:56:27.409Z,0.36
2023-01-22T02:58:54.883Z,0.36
2023-01-22T03:01:24.682Z,0.35
2023-01-22T03:04:01.528Z,0.35
2023-01-22T03:06:29.993Z,0.36
2023-01-22T03:09:00.966Z,0.35
2023-01-22T03:11:33.695Z,0.33
2023-01-22T03:14:24.228Z,0.33
2023-01-22T03:17:12.261Z,0.32
2023-01-22T03:19:58.937Z,0.33
2023-01-22T03:22:26.963Z,0.32
2023-01-22T03:24:55.092Z,0.30
2023-01-22T03:27:26.349Z,0.31
2023-01-22T03:29:55.039Z,0.31
2023-01-22T03:32:24.336Z,0.33
2023-01-22T03:34:53.661Z,0.34
2023-01-22T03:37:22.536Z,0.37
2023-01-22T03:39:53.042Z,0.36
2023-01-22T03:42:32.952Z,0.37
2023-01-22T03:45:00.283Z,0.38
2023-01-22T03:47:28.273Z,0.39
2023-01-22T03:49:55.892Z,0.42
2023-01-22T03:52:23.337Z,0.42
2023-01-22T03:54:50.553Z,0.43
2023-01-22T03:57:17.932Z,0.45
2023-01-22T03:59:46.382Z,0.45
2023-01-22T04:02:16.143Z,0.46
2023-01-22T04:05:00.871Z,0.47
2023-01-22T04:07:29.144Z,0.48
2023-01-22T04:09:56.459Z,0.47
2023-01-22T04:12:25.168Z,0.48
2023-01-22T04:14:52.500Z,0.46
2023-01-22T04:17:21.821Z,0.47
2023-01-22T04:19:52.035Z,0.48
2023-01-22T04:22:19.311Z,0.47
2023-01-22T04:24:49.307Z,0.48
2023-01-22T04:27:16.752Z,0.47
2023-01-22T04:29:44.031Z,0.46
2023-01-22T04:32:11.462Z,0.45
2023-01-22T04:35:00.959Z,0.44
2023-01-22T04:37:44.182Z,0.43
2023-01-22T04:40:12.142Z,0.40
2023-01-22T04:42:39.737Z,0.39
2023-01-22T04:45:08.365Z,0.35
2023-01-22T04:47:40.813Z,0.33
2023-01-22T04:50:13.257Z,0.30
2023-01-22T04:52:41.910Z,0.31
2023-01-22T04:55:10.930Z,0.29
2023-01-22T04:57:47.199Z,0.27
2023-01-22T05:00:15.422Z,0.24
2023-01-22T05:02:42.909Z,0.23
2023-01-22T05:05:10.932Z,0.22
2023-01-22T05:07:38.399Z,0.18
2023-01-22T05:10:06.249Z,0.16
2023-01-22T05:12:34.287Z,0.16
2023-01-22T05:15:04.130Z,0.14
2023-01-22T05:17:35.456Z,0.12
2023-01-22T05:20:02.979Z,0.11
2023-01-22T05:22:30.388Z,0.11
2023-01-22T05:24:59.085Z,0.09
2023-01-22T05:27:27.033Z,0.06
2023-01-22T05:30:01.704Z,0.05
2023-01-22T05:32:38.927Z,0.06
2023-01-22T05:35:07.581Z,0.05
2023-01-22T05:37:38.664Z,0.06
2023-01-22T05:40:09.043Z,0.06
2023-01-22T05:42:36.601Z,0.05
2023-01-22T05:45:06.753Z,0.05
2023-01-22T05:47:40.342Z,0.06
2023-01-22T05:50:13.913Z,0.03
2023-01-22T05:52:41.999Z,0.03
2023-01-22T05:55:09.503Z,0.01
2023-01-22T05:57:42.384Z,-0.04
2023-01-22T06:00:12.284Z,-0.07
2023-01-22T06:02:44.372Z,-0.09
2023-01-22T06:05:14.449Z,-0.09
2023-01-22T06:07:43.565Z,-0.09
2023-01-22T06:10:11.174Z,-0.09
2023-01-22T06:12:44.708Z,-0.10
2023-01-22T06:15:12.443Z,-0.10
2023-01-22T06:17:44.787Z,-0.08
2023-01-22T06:20:12.242Z,-0.10
2023-01-22T06:22:39.585Z,-0.13
2023-01-22T06:25:09.515Z,-0.17
2023-01-22T06:28:09.112Z,-0.18
2023-01-22T06:30:37.330Z,-0.18
2023-01-22T06:33:04.794Z,-0.20
2023-01-22T06:35:33.311Z,-0.20
2023-01-22T06:38:00.593Z,-0.18
2023-01-22T06:40:31.438Z,-0.18
2023-01-22T06:43:02.760Z,-0.18
2023-01-22T06:45:30.539Z,-0.19
2023-01-22T06:48:02.714Z,-0.20
2023-01-22T06:50:29.966Z,-0.17
2023-01-22T06:52:57.308Z,-0.18
2023-01-22T06:55:24.585Z,-0.20
2023-01-22T06:57:55.106Z,-0.22
2023-01-22T07:00:23.062Z,-0.22
2023-01-22T07:02:50.598Z,-0.23
2023-01-22T07:05:19.774Z,-0.23
2023-01-22T07:07:47.770Z,-0.24
2023-01-22T07:10:15.705Z,-0.24
2023-01-22T07:12:43.079Z,-0.22
2023-01-22T07:15:10.553Z,-0.21
2023-01-22T07:17:37.832Z,-0.21
2023-01-22T07:20:05.446Z,-0.22
2023-01-22T07:22:32.752Z,-0.22
2023-01-22T07:25:00.057Z,-0.24
2023-01-22T07:27:27.490Z,-0.26
2023-01-22T07:29:54.860Z,-0.24
2023-01-22T07:32:22.102Z,-0.23
2023-01-22T07:34:49.405Z,-0.24
2023-01-22T07:37:16.665Z,-0.23
2023-01-22T07:39:43.903Z,-0.23
2023-01-22T07:42:12.414Z,-0.22
2023-01-22T07:44:42.782Z,-0.20
2023-01-22T07:47:10.174Z,-0.18
2023-01-22T07:49:37.532Z,-0.19
2023-01-22T07:52:05.026Z,-0.18
2023-01-22T07:54:36.284Z,-0.18
2023-01-22T07:57:04.513Z,-0.18
2023-01-22T07:59:31.905Z,-0.21
2023-01-22T08:02:00.267Z,-0.24
2023-01-22T08:04:29.076Z,-0.24
2023-01-22T08:06:56.492Z,-0.24
2023-01-22T08:09:25.788Z,-0.26
2023-01-22T08:11:53.511Z,-0.26
2023-01-22T08:14:20.811Z,-0.25
2023-01-22T08:16:48.205Z,-0.24
2023-01-22T08:19:15.503Z,-0.23
2023-01-22T08:21:43.170Z,-0.23
2023-01-22T08:24:12.725Z,-0.24
2023-01-22T08:26:39.978Z,-0.24
2023-01-22T08:29:07.828Z,-0.23
2023-01-22T08:31:35.488Z,-0.23
2023-01-22T08:34:03.466Z,-0.22
2023-01-22T08:36:30.852Z,-0.20
2023-01-22T08:38:58.129Z,-0.18
2023-01-22T08:41:25.414Z,-0.18
2023-01-22T08:43:53.359Z,-0.16
2023-01-22T08:46:20.721Z,-0.13
2023-01-22T08:48:48.969Z,-0.09
2023-01-22T08:51:16.790Z,-0.04
2023-01-22T08:53:44.116Z,-0.05
2023-01-22T08:56:11.554Z,-0.03
2023-01-22T08:58:38.802Z,0.02
2023-01-22T09:01:06.493Z,0.03
2023-01-22T09:03:33.921Z,0.04
2023-01-22T09:06:01.215Z,0.06
2023-01-22T09:08:28.423Z,0.05
2023-01-22T09:10:55.736Z,0.05
2023-01-22T09:13:23.060Z,0.04
2023-01-22T09:15:50.837Z,0.06
2023-01-22T09:18:18.267Z,0.08
2023-01-22T09:20:45.553Z,0.09
2023-01-22T09:23:15.346Z,0.13
2023-01-22T09:25:42.896Z,0.17
2023-01-22T09:28:12.443Z,0.20
2023-01-22T09:30:41.154Z,0.23
2023-01-22T09:33:08.978Z,0.29
2023-01-22T09:35:36.414Z,0.34
2023-01-22T09:38:05.960Z,0.40
2023-01-22T09:40:44.448Z,0.42
2023-01-22T09:43:36.967Z,0.44
2023-01-22T09:46:15.630Z,0.45
2023-01-22T09:48:48.060Z,0.49
2023-01-22T09:51:16.306Z,0.51
2023-01-22T09:53:51.222Z,0.54
2023-01-22T09:56:21.491Z,0.60
2023-01-22T09:58:55.219Z,0.64
2023-01-22T10:01:23.994Z,0.65
2023-01-22T10:03:56.669Z,0.63
2023-01-22T10:06:25.279Z,0.60
2023-01-22T10:09:01.849Z,0.57
2023-01-22T10:11:29.389Z,0.52
2023-01-22T10:14:00.154Z,0.54
2023-01-22T10:16:27.775Z,0.56
2023-01-22T10:19:20.511Z,0.60
2023-01-22T10:21:52.488Z,0.61
2023-01-22T10:24:19.739Z,0.62
2023-01-22T10:26:55.595Z,0.67
2023-01-22T10:29:37.248Z,0.69
2023-01-22T10:32:25.303Z,0.72
2023-01-22T10:35:00.109Z,0.76
2023-01-22T10:37:28.413Z,0.79
2023-01-22T10:40:00.229Z,0.82
2023-01-22T10:42:29.455Z,0.86
2023-01-22T10:45:09.168Z,0.91
2023-01-22T10:47:36.565Z,0.95
2023-01-22T10:50:10.521Z,1.01
2023-01-22T10:52:55.417Z,1.01
2023-01-22T10:55:30.093Z,1.03
2023-01-22T10:58:04.122Z,1.07
2023-01-22T11:00:50.415Z,1.12
2023-01-22T11:03:24.475Z,1.16
2023-01-22T11:05:58.039Z,1.23
2023-01-22T11:08:30.891Z,1.25
2023-01-22T11:11:03.556Z,1.28
2023-01-22T11:13:53.297Z,1.32
2023-01-22T11:16:23.209Z,1.35
2023-01-22T11:19:21.698Z,1.36
2023-01-22T11:21:57.984Z,1.34
2023-01-22T11:24:33.649Z,1.36
2023-01-22T11:27:04.589Z,1.38
2023-01-22T11:29:58.000Z,1.36
2023-01-22T11:32:54.656Z,1.39
2023-01-22T11:35:38.527Z,1.39
2023-01-22T11:38:36.407Z,1.41
2023-01-22T11:41:12.849Z,1.40
2023-01-22T11:44:17.408Z,1.38
2023-01-22T11:46:56.898Z,1.38
2023-01-22T11:50:09.467Z,1.40
2023-01-22T11:52:38.004Z,1.39
2023-01-22T11:55:25.070Z,1.40
2023-01-22T11:58:12.748Z,1.45
2023-01-22T12:00:43.978Z,1.48
2023-01-22T12:03:32.690Z,1.52
2023-01-22T12:06:21.903Z,1.56
2023-01-22T12:09:12.209Z,1.54
2023-01-22T12:12:26.007Z,1.52
2023-01-22T12:15:09.661Z,1.54
2023-01-22T12:18:21.932Z,1.55
2023-01-22T12:20:49.232Z,1.58
2023-01-22T12:23:48.891Z,1.61
2023-01-22T12:26:41.458Z,1.59
2023-01-22T12:29:32.678Z,1.59
2023-01-22T12:32:09.252Z,1.62
2023-01-22T12:34:53.368Z,1.62
2023-01-22T12:37:25.562Z,1.63
2023-01-22T12:40:32.265Z,1.65
2023-01-22T12:43:05.180Z,1.64
2023-01-22T12:45:49.769Z,1.65
2023-01-22T12:48:45.770Z,1.67
2023-01-22T12:51:42.676Z,1.67
2023-01-22T12:54:23.119Z,1.66
2023-01-22T12:56:52.396Z,1.69
2023-01-22T12:59:53.183Z,1.67
2023-01-22T13:02:26.724Z,1.65
2023-01-22T13:04:55.035Z,1.62
2023-01-22T13:07:31.174Z,1.59
2023-01-22T13:10:21.538Z,1.60
2023-01-22T13:12:52.537Z,1.58
2023-01-22T13:15:24.123Z,1.59
2023-01-22T13:18:06.638Z,1.63
2023-01-22T13:20:38.079Z,1.62
2023-01-22T13:23:06.449Z,1.61
2023-01-22T13:25:34.064Z,1.60
2023-01-22T13:28:03.105Z,1.61
2023-01-22T13:30:31.246Z,1.62
2023-01-22T13:33:14.706Z,1.64
2023-01-22T13:35:46.835Z,1.63
2023-01-22T13:38:27.189Z,1.64
2023-01-22T13:40:59.744Z,1.64
2023-01-22T13:43:27.687Z,1.65
2023-01-22T13:45:57.112Z,1.63
2023-01-22T13:48:26.529Z,1.63
2023-01-22T13:51:05.157Z,1.62
2023-01-22T13:53:33.666Z,1.63
2023-01-22T13:56:01.446Z,1.62
2023-01-22T13:58:48.396Z,1.64
2023-01-22T14:01:34.754Z,1.66
2023-01-22T14:04:18.628Z,1.67
2023-01-22T14:06:49.582Z,1.68
2023-01-22T14:09:26.773Z,1.68
2023-01-22T14:11:54.501Z,1.65
2023-01-22T14:14:21.811Z,1.65
2023-01-22T14:16:49.212Z,1.65
2023-01-22T14:19:16.826Z,1.66
2023-01-22T14:21:44.733Z,1.65
2023-01-22T14:24:13.098Z,1.65
2023-01-22T14:26:40.459Z,1.64
2023-01-22T14:29:08.218Z,1.65
2023-01-22T14:31:35.636Z,1.66
2023-01-22T14:34:03.144Z,1.69
2023-01-22T14:36:31.008Z,1.70
2023-01-22T14:38:58.872Z,1.68
2023-01-22T14:41:26.212Z,1.69
2023-01-22T14:43:55.072Z,1.69
2023-01-22T14:46:22.357Z,1.69
2023-01-22T14:48:49.598Z,1.70
2023-01-22T14:51:16.967Z,1.71
2023-01-22T14:53:45.191Z,1.71
2023-01-22T14:56:13.095Z,1.71
2023-01-22T14:58:40.599Z,1.72
2023-01-22T15:01:19.096Z,1.72
2023-01-22T15:03:46.962Z,1.71
2023-01-22T15:06:14.317Z,1.71
2023-01-22T15:08:41.623Z,1.72
2023-01-22T15:11:08.961Z,1.72
2023-01-22T15:13:36.267Z,1.73
2023-01-22T15:16:08.403Z,1.71
2023-01-22T15:18:37.418Z,1.70
2023-01-22T15:21:05.909Z,1.69
2023-01-22T15:23:34.430Z,1.69
2023-01-22T15:26:08.233Z,1.68
2023-01-22T15:28:36.196Z,1.69
2023-01-22T15:31:08.448Z,1.68
2023-01-22T15:33:37.173Z,1.69
2023-01-22T15:36:05.069Z,1.70
2023-01-22T15:38:32.360Z,1.69
2023-01-22T15:41:07.817Z,1.69
2023-01-22T15:43:35.276Z,1.70
2023-01-22T15:46:02.667Z,1.70
2023-01-22T15:48:29.952Z,1.70
2023-01-22T15:51:06.930Z,1.70
2023-01-22T15:53:34.261Z,1.70
2023-01-22T15:56:02.503Z,1.70
2023-01-22T15:58:31.816Z,1.70
2023-01-22T16:00:59.864Z,1.71
2023-01-22T16:03:27.099Z,1.70
2023-01-22T16:05:54.423Z,1.72
2023-01-22T16:08:21.925Z,1.71
2023-01-22T16:10:49.236Z,1.72
2023-01-22T16:13:16.646Z,1.72
2023-01-22T16:15:43.892Z,1.74
2023-01-22T16:18:11.201Z,1.74
2023-01-22T16:20:38.567Z,1.74
2023-01-22T16:23:06.961Z,1.73
2023-01-22T16:25:34.853Z,1.73
2023-01-22T16:28:02.137Z,1.73
2023-01-22T16:30:29.384Z,1.73
2023-01-22T16:32:56.686Z,1.74
2023-01-22T16:35:24.157Z,1.73
2023-01-22T16:37:51.528Z,1.72
2023-01-22T16:40:19.054Z,1.72
2023-01-22T16:43:08.333Z,1.73
2023-01-22T16:45:35.671Z,1.74
2023-01-22T16:48:03.007Z,1.74
2023-01-22T16:50:30.273Z,1.74
2023-01-22T16:52:57.899Z,1.74
2023-01-22T16:55:25.165Z,1.74
2023-01-22T16:57:53.992Z,1.74
2023-01-22T17:00:21.690Z,1.73
2023-01-22T17:02:49.033Z,1.73
2023-01-22T17:05:16.438Z,1.74
2023-01-22T17:07:43.861Z,1.73
2023-01-22T17:10:11.827Z,1.74
2023-01-22T17:12:39.167Z,1.74
2023-01-22T17:15:07.593Z,1.74
2023-01-22T17:17:34.847Z,1.75
2023-01-22T17:20:02.164Z,1.74
2023-01-22T17:22:29.753Z,1.75
2023-01-22T17:24:57.073Z,1.74
2023-01-22T17:27:25.971Z,1.77
2023-01-22T17:29:53.371Z,1.77
2023-01-22T17:32:22.499Z,1.76
2023-01-22T17:34:50.040Z,1.78
2023-01-22T17:37:17.295Z,1.76
2023-01-22T17:39:50.650Z,1.77
2023-01-22T17:42:18.839Z,1.78
2023-01-22T17:44:46.118Z,1.78
2023-01-22T17:47:13.870Z,1.79
2023-01-22T17:49:41.174Z,1.79
2023-01-22T17:52:09.202Z,1.79
2023-01-22T17:54:37.090Z,1.80
2023-01-22T17:57:05.522Z,1.80
2023-01-22T17:59:33.172Z,1.80
2023-01-22T18:02:00.613Z,1.80
2023-01-22T18:04:30.930Z,1.81
2023-01-22T18:06:58.301Z,1.81
2023-01-22T18:09:25.762Z,1.82
2023-01-22T18:11:53.259Z,1.84
2023-01-22T18:14:25.489Z,1.83
2023-01-22T18:16:52.783Z,1.84
2023-01-22T18:19:22.846Z,1.85
2023-01-22T18:21:52.872Z,1.85
2023-01-22T18:24:23.080Z,1.85
2023-01-22T18:26:51.852Z,1.85
2023-01-22T18:29:19.108Z,1.87
2023-01-22T18:31:46.478Z,1.86
2023-01-22T18:34:14.994Z,1.87
2023-01-22T18:36:42.634Z,1.85
2023-01-22T18:39:16.458Z,1.84
2023-01-22T18:41:45.098Z,1.84
2023-01-22T18:44:16.127Z,1.84
2023-01-22T18:46:47.650Z,1.81
2023-01-22T18:49:18.832Z,1.82
2023-01-22T18:51:47.023Z,1.82
2023-01-22T18:54:14.979Z,1.82
2023-01-22T18:56:42.490Z,1.83
2023-01-22T18:59:11.797Z,1.84
2023-01-22T19:01:40.952Z,1.85
2023-01-22T19:04:10.078Z,1.85
2023-01-22T19:06:39.110Z,1.84
2023-01-22T19:09:10.313Z,1.86
2023-01-22T19:11:40.650Z,1.85
2023-01-22T19:14:09.540Z,1.86
2023-01-22T19:16:37.940Z,1.84
2023-01-22T19:19:11.316Z,1.84
2023-01-22T19:21:41.337Z,1.84
2023-01-22T19:24:09.221Z,1.83
2023-01-22T19:26:38.285Z,1.83
2023-01-22T19:29:09.400Z,1.83
2023-01-22T19:31:40.510Z,1.84
2023-01-22T19:34:09.122Z,1.84
2023-01-22T19:36:38.667Z,1.83
2023-01-22T19:39:09.786Z,1.84
2023-01-22T19:41:40.987Z,1.83
2023-01-22T19:44:09.820Z,1.82
2023-01-22T19:46:38.811Z,1.84
2023-01-22T19:49:07.154Z,1.84
2023-01-22T19:51:35.128Z,1.83
2023-01-22T19:54:04.700Z,1.84
2023-01-22T19:56:34.544Z,1.85
2023-01-22T19:59:06.059Z,1.88
2023-01-22T20:01:34.884Z,1.87
2023-01-22T20:04:03.804Z,1.89
2023-01-22T20:06:32.850Z,1.89
2023-01-22T20:09:00.180Z,1.90
2023-01-22T20:11:27.537Z,1.90
2023-01-22T20:13:54.961Z,1.90
2023-01-22T20:16:27.460Z,1.92
2023-01-22T20:18:56.986Z,1.93
2023-01-22T20:21:26.788Z,1.93
2023-01-22T20:23:54.815Z,1.92
2023-01-22T20:26:26.704Z,1.91
2023-01-22T20:28:54.237Z,1.90
2023-01-22T20:31:23.961Z,1.91
2023-01-22T20:33:52.723Z,1.91
2023-01-22T20:36:21.902Z,1.91
2023-01-22T20:38:52.768Z,1.92
2023-01-22T20:41:21.888Z,1.92
2023-01-22T20:43:49.626Z,1.92
2023-01-22T20:46:22.621Z,1.91
2023-01-22T20:48:52.224Z,1.91
2023-01-22T20:51:24.500Z,1.92
2023-01-22T20:53:54.003Z,1.95
2023-01-22T20:56:26.110Z,1.95
2023-01-22T20:58:58.744Z,1.95
2023-01-22T21:01:27.009Z,1.98
2023-01-22T21:03:56.343Z,1.98
2023-01-22T21:06:24.792Z,1.98
2023-01-22T21:08:53.494Z,1.98
2023-01-22T21:11:21.251Z,1.98
2023-01-22T21:13:51.010Z,1.98
2023-01-22T21:16:26.420Z,1.97
2023-01-22T21:19:05.501Z,1.97
2023-01-22T21:21:35.014Z,1.99
2023-01-22T21:24:02.611Z,2.00
2023-01-22T21:26:32.331Z,2.00
2023-01-22T21:29:09.238Z,2.01
2023-01-22T21:31:37.755Z,2.01
2023-01-22T21:34:07.899Z,2.01
2023-01-22T21:36:38.323Z,2.00
2023-01-22T21:39:09.521Z,2.00
2023-01-22T21:41:38.882Z,2.00
2023-01-22T21:44:25.364Z,2.00
2023-01-22T21:46:52.684Z,1.99
2023-01-22T21:49:23.506Z,1.99
2023-01-22T21:51:56.829Z,1.99
2023-01-22T21:54:25.797Z,1.99
2023-01-22T21:56:54.076Z,1.98
2023-01-22T21:59:21.832Z,1.98
2023-01-22T22:01:54.706Z,1.97
2023-01-22T22:04:25.428Z,1.97
2023-01-22T22:06:53.958Z,1.99
2023-01-22T22:09:27.416Z,1.97
2023-01-22T22:11:56.886Z,1.99
2023-01-22T22:14:24.972Z,1.98
2023-01-22T22:16:53.053Z,1.97
2023-01-22T22:19:21.387Z,1.96
2023-01-22T22:21:50.947Z,1.95
2023-01-22T22:24:19.629Z,1.95
2023-01-22T22:26:47.286Z,1.97
2023-01-22T22:29:14.887Z,1.96
2023-01-22T22:31:42.491Z,1.96
2023-01-22T22:34:09.976Z,1.97
2023-01-22T22:36:37.332Z,1.98
2023-01-22T22:39:06.672Z,1.95
2023-01-22T22:41:37.224Z,1.94
2023-01-22T22:44:06.080Z,1.94
2023-01-22T22:46:37.148Z,1.94
2023-01-22T22:49:05.478Z,1.95
2023-01-22T22:51:38.124Z,1.94
2023-01-22T22:54:08.403Z,1.94
2023-01-22T22:56:35.767Z,1.94
2023-01-22T22:59:03.931Z,1.94
2023-01-22T23:01:36.015Z,1.95
2023-01-22T23:04:05.326Z,1.94
2023-01-22T23:06:34.488Z,1.95
2023-01-22T23:09:17.678Z,1.95
2023-01-22T23:11:45.848Z,1.93
2023-01-22T23:14:13.124Z,1.94
2023-01-22T23:16:42.601Z,1.93
2023-01-22T23:19:16.150Z,1.93
2023-01-22T23:21:44.238Z,1.94
2023-01-22T23:24:13.467Z,1.95
2023-01-22T23:26:42.229Z,1.96
2023-01-22T23:29:12.717Z,1.95
2023-01-22T23:31:40.765Z,1.98
2023-01-22T23:34:11.573Z,1.97
2023-01-22T23:36:39.902Z,1.96
2023-01-22T23:39:07.198Z,1.97
2023-01-22T23:41:34.580Z,1.95
2023-01-22T23:44:02.880Z,1.94
2023-01-22T23:46:31.076Z,1.95
2023-01-22T23:48:59.385Z,1.97
2023-01-22T23:51:27.669Z,1.96
2023-01-22T23:53:55.983Z,1.96
2023-01-22T23:56:26.035Z,1.96
2023-01-22T23:58:54.929Z,1.95
